createdAt,value
2023-03-29T00:01:34.923Z,0.75
2023-03-29T00:06:36.016Z,0.72
2023-03-29T00:11:37.424Z,0.67
2023-03-29T00:16:39.281Z,0.67
2023-03-29T00:21:40.884Z,0.66
2023-03-29T00:26:42.443Z,0.61
2023-03-29T00:31:53.667Z,0.63
2023-03-29T00:36:57.891Z,0.64
2023-03-29T00:41:59.458Z,0.68
2023-03-29T00:47:00.983Z,0.72
2023-03-29T00:52:03.481Z,0.74
2023-03-29T00:57:06.940Z,0.67
2023-03-29T01:02:09.356Z,0.67
2023-03-29T01:07:41.324Z,0.59
2023-03-29T01:12:51.330Z,0.51
2023-03-29T01:17:53.909Z,0.53
2023-03-29T01:23:32.957Z,0.56
2023-03-29T01:28:43.104Z,0.50
2023-03-29T01:33:50.404Z,0.43
2023-03-29T01:39:04.957Z,0.41
2023-03-29T01:44:13.412Z,0.33
2023-03-29T01:49:22.519Z,0.17
2023-03-29T01:54:38.342Z,0.18
2023-03-29T01:59:43.773Z,0.08
2023-03-29T02:04:50.218Z,0.12
2023-03-29T02:09:53.665Z,0.17
2023-03-29T02:14:57.976Z,0.16
2023-03-29T02:20:14.927Z,0.22
2023-03-29T02:25:17.508Z,0.21
2023-03-29T02:30:21.041Z,0.08
2023-03-29T02:35:34.548Z,0.11
2023-03-29T02:40:38.125Z,0.04
2023-03-29T02:45:41.193Z,-0.05
2023-03-29T02:50:45.981Z,-0.06
2023-03-29T02:55:47.476Z,-0.01
2023-03-29T03:00:49.332Z,0.06
2023-03-29T03:05:52.424Z,0.06
2023-03-29T03:10:54.177Z,-0.01
2023-03-29T03:15:56.177Z,0.06
2023-03-29T03:21:04.716Z,-0.12
2023-03-29T03:26:06.305Z,-0.22
2023-03-29T03:31:07.901Z,-0.20
2023-03-29T03:36:11.279Z,-0.05
2023-03-29T03:41:13.297Z,-0.08
2023-03-29T03:46:16.464Z,0.03
2023-03-29T03:51:18.398Z,0.11
2023-03-29T03:56:20.522Z,0.01
2023-03-29T04:01:21.999Z,0.06
2023-03-29T04:06:23.434Z,0.01
2023-03-29T04:11:25.649Z,0.02
2023-03-29T04:16:28.435Z,0.12
2023-03-29T04:21:29.886Z,0.22
2023-03-29T04:26:31.365Z,0.29
2023-03-29T04:31:32.916Z,0.32
2023-03-29T04:36:34.529Z,0.35
2023-03-29T04:41:35.992Z,0.29
2023-03-29T04:46:40.151Z,0.18
2023-03-29T04:51:41.746Z,0.14
2023-03-29T04:56:43.250Z,0.11
2023-03-29T05:01:45.121Z,0.08
2023-03-29T05:06:47.220Z,0.12
2023-03-29T05:11:49.148Z,0.31
2023-03-29T05:16:50.634Z,0.35
2023-03-29T05:21:53.097Z,0.42
2023-03-29T05:26:54.608Z,0.50
2023-03-29T05:31:56.104Z,0.56
2023-03-29T05:36:59.028Z,0.79
2023-03-29T05:42:00.869Z,0.94
2023-03-29T05:47:02.362Z,1.05
2023-03-29T05:52:03.988Z,1.21
2023-03-29T05:57:06.183Z,1.38
2023-03-29T06:02:07.833Z,1.35
2023-03-29T06:07:10.377Z,1.41
2023-03-29T06:12:12.288Z,1.53
2023-03-29T06:17:13.859Z,1.76
2023-03-29T06:22:15.355Z,1.94
2023-03-29T06:27:16.811Z,2.05
2023-03-29T06:32:18.532Z,2.11
2023-03-29T06:37:21.496Z,2.43
2023-03-29T06:42:23.165Z,2.67
2023-03-29T06:47:30.947Z,2.78
2023-03-29T06:52:32.478Z,2.95
2023-03-29T06:57:34.181Z,3.08
2023-03-29T07:02:35.849Z,3.27
2023-03-29T07:07:55.094Z,3.49
2023-03-29T07:12:56.495Z,3.82
2023-03-29T07:17:58.159Z,4.04
2023-03-29T07:23:00.589Z,4.08
2023-03-29T07:28:02.888Z,4.25
2023-03-29T07:33:04.751Z,4.49
2023-03-29T07:38:08.212Z,4.60
2023-03-29T07:43:10.995Z,5.17
2023-03-29T07:48:13.159Z,5.22
2023-03-29T07:53:14.615Z,5.35
2023-03-29T07:58:16.333Z,5.70
2023-03-29T08:03:17.871Z,6.02
2023-03-29T08:08:19.419Z,6.16
2023-03-29T08:13:20.895Z,6.25
2023-03-29T08:18:22.367Z,6.45
2023-03-29T08:23:23.826Z,6.81
2023-03-29T08:28:25.266Z,7.06
2023-03-29T08:33:26.691Z,7.26
2023-03-29T08:38:28.784Z,7.19
2023-03-29T08:43:58.257Z,7.23
2023-03-29T08:49:03.994Z,7.40
2023-03-29T08:54:12.467Z,7.58
2023-03-29T08:59:28.252Z,8.25
2023-03-29T09:04:36.568Z,8.56
2023-03-29T09:09:38.357Z,8.96
2023-03-29T09:14:54.302Z,9.35
2023-03-29T09:20:37.818Z,9.12
2023-03-29T09:26:00.894Z,9.15
2023-03-29T09:31:26.720Z,9.30
2023-03-29T09:36:52.623Z,8.75
2023-03-29T09:42:08.051Z,8.98
2023-03-29T09:47:22.060Z,9.44
2023-03-29T09:52:23.581Z,9.60
2023-03-29T09:57:26.069Z,9.67
2023-03-29T10:02:31.425Z,9.87
2023-03-29T10:07:41.288Z,9.68
2023-03-29T10:12:50.293Z,9.88
2023-03-29T10:17:58.924Z,9.76
2023-03-29T10:23:00.750Z,9.78
2023-03-29T10:28:15.824Z,9.68
2023-03-29T10:33:21.111Z,9.82
2023-03-29T10:38:27.866Z,9.60
2023-03-29T10:43:37.293Z,9.89
2023-03-29T10:48:40.701Z,10.00
2023-03-29T10:53:42.326Z,10.39
2023-03-29T10:58:55.949Z,10.39
2023-03-29T11:04:31.355Z,10.33
2023-03-29T11:09:43.567Z,10.48
2023-03-29T11:15:00.404Z,10.64
2023-03-29T11:20:19.523Z,10.82
2023-03-29T11:26:06.069Z,10.72
2023-03-29T11:31:38.382Z,11.06
2023-03-29T11:37:02.618Z,11.19
2023-03-29T11:42:24.261Z,11.32
2023-03-29T11:47:30.596Z,11.01
2023-03-29T11:52:44.511Z,10.90
2023-03-29T11:58:22.379Z,11.22
2023-03-29T12:03:44.745Z,11.42
2023-03-29T12:09:01.226Z,11.22
2023-03-29T12:14:14.147Z,11.13
2023-03-29T12:19:33.110Z,11.39
2023-03-29T12:24:38.918Z,11.46
2023-03-29T12:29:46.597Z,11.29
2023-03-29T12:34:59.731Z,11.24
2023-03-29T12:40:28.439Z,11.24
2023-03-29T12:45:37.588Z,11.35
2023-03-29T12:50:54.284Z,11.46
2023-03-29T12:56:21.696Z,11.57
2023-03-29T13:01:31.146Z,11.79
2023-03-29T13:07:03.436Z,11.66
2023-03-29T13:12:13.030Z,11.53
2023-03-29T13:17:26.828Z,11.86
2023-03-29T13:22:37.133Z,11.60
2023-03-29T13:27:59.726Z,11.77
2023-03-29T13:33:33.715Z,12.05
2023-03-29T13:38:46.281Z,11.89
2023-03-29T13:43:51.776Z,11.75
2023-03-29T13:48:58.801Z,11.95
2023-03-29T13:54:13.572Z,11.85
2023-03-29T13:59:20.662Z,11.83
2023-03-29T14:04:26.619Z,11.58
2023-03-29T14:09:31.555Z,11.67
2023-03-29T14:14:33.175Z,11.43
2023-03-29T14:19:37.565Z,11.45
2023-03-29T14:24:44.965Z,11.81
2023-03-29T14:29:49.197Z,11.60
2023-03-29T14:34:50.944Z,11.27
2023-03-29T14:39:53.364Z,11.36
2023-03-29T14:45:06.458Z,11.63
2023-03-29T14:50:19.450Z,11.51
2023-03-29T14:55:23.919Z,11.04
2023-03-29T15:00:38.520Z,11.20
2023-03-29T15:05:48.561Z,11.43
2023-03-29T15:10:50.281Z,11.44
2023-03-29T15:15:58.958Z,11.25
2023-03-29T15:21:01.934Z,11.47
2023-03-29T15:26:14.060Z,11.37
2023-03-29T15:31:19.548Z,11.32
2023-03-29T15:36:21.053Z,11.12
2023-03-29T15:41:22.990Z,11.04
2023-03-29T15:46:24.496Z,10.68
2023-03-29T15:51:26.097Z,10.51
2023-03-29T15:56:27.617Z,10.43
2023-03-29T16:01:34.359Z,10.29
2023-03-29T16:06:36.201Z,10.18
2023-03-29T16:11:39.239Z,10.10
2023-03-29T16:16:40.780Z,9.88
2023-03-29T16:21:43.127Z,9.98
2023-03-29T16:26:44.599Z,9.80
2023-03-29T16:31:48.228Z,9.76
2023-03-29T16:36:50.720Z,9.78
2023-03-29T16:41:52.187Z,9.75
2023-03-29T16:46:54.214Z,9.74
2023-03-29T16:51:56.077Z,9.49
2023-03-29T16:56:57.855Z,9.49
2023-03-29T17:01:59.406Z,9.41
2023-03-29T17:07:01.585Z,9.58
2023-03-29T17:12:03.083Z,9.38
2023-03-29T17:17:05.014Z,9.36
2023-03-29T17:22:06.591Z,9.18
2023-03-29T17:27:08.066Z,9.18
2023-03-29T17:32:09.649Z,8.87
2023-03-29T17:37:11.114Z,8.91
2023-03-29T17:42:12.703Z,9.01
2023-03-29T17:47:14.113Z,8.86
2023-03-29T17:52:15.617Z,8.84
2023-03-29T17:57:17.243Z,8.62
2023-03-29T18:02:21.938Z,8.72
2023-03-29T18:07:23.557Z,8.60
2023-03-29T18:12:26.132Z,8.56
2023-03-29T18:17:27.767Z,8.59
2023-03-29T18:22:29.245Z,8.58
2023-03-29T18:27:30.833Z,8.55
2023-03-29T18:32:32.633Z,8.48
2023-03-29T18:37:34.241Z,8.51
2023-03-29T18:42:35.888Z,8.45
2023-03-29T18:47:37.496Z,8.27
2023-03-29T18:52:39.091Z,8.33
2023-03-29T18:57:40.953Z,8.16
2023-03-29T19:02:42.422Z,8.23
2023-03-29T19:07:44.032Z,8.15
2023-03-29T19:12:45.450Z,8.23
2023-03-29T19:17:46.976Z,8.23
2023-03-29T19:22:48.407Z,8.21
2023-03-29T19:27:50.305Z,8.14
2023-03-29T19:32:52.225Z,8.25
2023-03-29T19:37:53.687Z,8.18
2023-03-29T19:42:55.119Z,8.21
2023-03-29T19:47:57.717Z,8.20
2023-03-29T19:52:59.257Z,8.21
2023-03-29T19:58:01.003Z,8.21
2023-03-29T20:03:03.019Z,8.25
2023-03-29T20:08:04.684Z,8.17
2023-03-29T20:13:06.887Z,8.24
2023-03-29T20:18:08.515Z,8.36
2023-03-29T20:23:10.963Z,8.37
2023-03-29T20:28:12.744Z,8.37
2023-03-29T20:33:14.227Z,8.22
2023-03-29T20:38:16.133Z,8.22
2023-03-29T20:43:20.547Z,8.22
2023-03-29T20:48:24.278Z,8.31
2023-03-29T20:53:34.158Z,8.13
2023-03-29T20:58:35.577Z,8.13
2023-03-29T21:03:37.417Z,8.05
2023-03-29T21:08:39.066Z,8.04
2023-03-29T21:13:41.501Z,8.09
2023-03-29T21:18:43.510Z,8.06
2023-03-29T21:23:44.942Z,8.15
2023-03-29T21:28:48.501Z,8.10
2023-03-29T21:33:50.223Z,8.06
2023-03-29T21:38:51.877Z,7.92
2023-03-29T21:43:53.319Z,7.82
2023-03-29T21:48:54.859Z,7.82
2023-03-29T21:53:56.347Z,7.86
2023-03-29T21:58:57.764Z,7.77
2023-03-29T22:03:59.186Z,7.84
2023-03-29T22:09:00.820Z,7.83
2023-03-29T22:14:02.268Z,7.86
2023-03-29T22:19:04.330Z,7.79
2023-03-29T22:24:06.101Z,7.85
2023-03-29T22:29:07.531Z,7.96
2023-03-29T22:34:09.034Z,7.85
2023-03-29T22:39:11.259Z,7.93
2023-03-29T22:44:12.755Z,7.92
2023-03-29T22:49:14.226Z,7.95
2023-03-29T22:54:15.714Z,8.01
2023-03-29T22:59:17.133Z,8.10
2023-03-29T23:04:18.625Z,8.14
2023-03-29T23:09:20.097Z,8.16
2023-03-29T23:14:23.089Z,8.19
2023-03-29T23:19:24.535Z,8.27
2023-03-29T23:24:25.953Z,8.16
2023-03-29T23:29:27.487Z,8.17
2023-03-29T23:34:28.889Z,8.04
2023-03-29T23:39:30.696Z,8.08
2023-03-29T23:44:32.136Z,8.00
2023-03-29T23:49:33.952Z,8.03
2023-03-29T23:54:35.369Z,8.08
2023-03-29T23:59:37.814Z,8.15
